Temp: 14.0°C   Baro: 1018.4mb
  Wind: 2.9mph   Dir: ENE (64°)
  Rain: 0.0mm (0.0mm/hr)
  Solar: 0W/m2  Hum: 84%
 
Bath Spa Weather Station Historical Data
Daily Summary for July 13, 2019 Units:  Metric    English   Both
Daily Weekly Monthly Yearly Custom
  High: Low: Average:
Temperature: 21.9 °C 10.8 °C 15.9 °C
Dew Point: 15.5 °C 6.8 °C 10.1 °C
Humidity: 95% 43.4% 70%
Wind Speed: 16.6km/h 0km/h 2.6km/h
Wind Gust: 29km/h - -
Wind- - ESE
Pressure: 1035.4 hPa 1029.3 hPa -
Precipitation: 0.51 mm    
Historical Graphs
 
 
Tabular Data for July 13, 2019
Time Temperature Dew Point Pressure Wind Wind Speed Wind Gust Humidity Rainfall Rate (Hourly) solar
00:04 16.4 °C 15.4 °C 1029.3 hPa WNW 1.9 km/h 6.4 km/h 94% 0.51 mm 0 W/m2
00:09 16.4 °C 15.4 °C 1029.3 hPa WNW 0.8 km/h 4.8 km/h 94% 0.51 mm 0 W/m2
00:14 16.4 °C 15.4 °C 1029.3 hPa WNW 0.2 km/h 3.2 km/h 94% 0.51 mm 0 W/m2
00:19 16.4 °C 15.4 °C 1029.3 hPa WNW 0.2 km/h 3.2 km/h 94% 0.51 mm 0 W/m2
00:24 16.4 °C 15.4 °C 1029.3 hPa WNW 1 km/h 3.2 km/h 94% 0.51 mm 0 W/m2
00:29 16.4 °C 15.4 °C 1029.3 hPa WNW 1.1 km/h 3.2 km/h 94% 0.51 mm 0 W/m2
00:34 16.4 °C 15.4 °C 1029.3 hPa WNW 1.8 km/h 4.8 km/h 94% 0.51 mm 0 W/m2
00:39 16.4 °C 15.4 °C 1029.3 hPa WNW 0.3 km/h 4.8 km/h 94% 0.25 mm 0 W/m2
00:44 16.4 °C 15.4 °C 1029.3 hPa WNW 1.4 km/h 4.8 km/h 94% 0.51 mm 0 W/m2
00:49 16.4 °C 15.4 °C 1029.3 hPa WNW 0.8 km/h 3.2 km/h 94% 0.51 mm 0 W/m2
00:54 16.4 °C 15.4 °C 1029.7 hPa WNW 1.4 km/h 4.8 km/h 94% 0.51 mm 0 W/m2
00:59 16.4 °C 15.4 °C 1029.7 hPa WNW 0.3 km/h 3.2 km/h 94% 0.51 mm 0 W/m2
01:04 16.4 °C 15.4 °C 1029.7 hPa WNW 1.1 km/h 4.8 km/h 94% 0.51 mm 0 W/m2
01:09 16.4 °C 15.4 °C 1029.7 hPa WNW 0.2 km/h 4.8 km/h 94% 0.25 mm 0 W/m2
01:14 16.3 °C 15.3 °C 1029.7 hPa WNW 0.8 km/h 4.8 km/h 94% 0.51 mm 0 W/m2
01:19 16.3 °C 15.4 °C 1029.7 hPa WNW 0.5 km/h 4.8 km/h 94.5% 0.51 mm 0 W/m2
01:24 16.3 °C 15.5 °C 1029.7 hPa WNW 0.5 km/h 3.2 km/h 95% 0.51 mm 0 W/m2
01:29 16.3 °C 15.4 °C 1029.7 hPa WNW 1 km/h 4.8 km/h 94.5% 0.51 mm 0 W/m2
01:34 16.3 °C 15.3 °C 1029.7 hPa WNW 0.6 km/h 4.8 km/h 94.1% 0.51 mm 0 W/m2
01:39 16.3 °C 15.3 °C 1029.7 hPa WNW 0.2 km/h 3.2 km/h 94.1% 0.51 mm 0 W/m2
01:44 16.3 °C 15.4 °C 1030 hPa WNW 0.3 km/h 3.2 km/h 94.5% 0.25 mm 0 W/m2
01:49 16.3 °C 15.4 °C 1030 hPa WNW 0.3 km/h 3.2 km/h 95% 0.25 mm 0 W/m2
01:54 16.2 °C 15.4 °C 1030 hPa WNW 0.2 km/h 1.6 km/h 95% 0.25 mm 0 W/m2
01:59 16.2 °C 15.4 °C 1030 hPa WNW 0.2 km/h 1.6 km/h 95% 0.25 mm 0 W/m2
02:04 16.3 °C 15.4 °C 1030 hPa WNW 0.2 km/h 3.2 km/h 95% 0.25 mm 0 W/m2
02:09 16.3 °C 15.4 °C 1030 hPa Calm     95% 0.25 mm 0 W/m2
02:14 16.2 °C 15.4 °C 1030 hPa Calm     95% 0 mm 0 W/m2
02:19 16.2 °C 15.4 °C 1030 hPa WNW 0.5 km/h 1.6 km/h 95% 0 mm 0 W/m2
02:24 16.2 °C 15.4 °C 1030 hPa WNW 0.2 km/h 1.6 km/h 95% 0 mm 0 W/m2
02:29 16.2 °C 15.4 °C 1030 hPa NNW 5.1 km/h 19.3 km/h 95% 0 mm 0 W/m2
02:34 15.4 °C 14.6 °C 1030.4 hPa NE 16.6 km/h 29 km/h 94.8% 0 mm 0 W/m2
02:39 14.5 °C 13.6 °C 1030.4 hPa NE 9.3 km/h 29 km/h 94.3% 0 mm 0 W/m2
02:44 14.1 °C 13.1 °C 1030.4 hPa NE 6.6 km/h 16.1 km/h 94% 0 mm 0 W/m2
02:49 13.9 °C 12.9 °C 1030.4 hPa East 4.5 km/h 16.1 km/h 94% 0 mm 0 W/m2
02:54 13.8 °C 12.9 °C 1030.7 hPa ENE 2.4 km/h 8 km/h 94% 0 mm 0 W/m2
02:59 13.7 °C 12.8 °C 1030.7 hPa ESE 2.1 km/h 16.1 km/h 94% 0 mm 0 W/m2
03:04 13.7 °C 12.8 °C 1031 hPa ESE 0.2 km/h 4.8 km/h 94% 0 mm 0 W/m2
03:09 13.7 °C 12.8 °C 1031 hPa ENE 1.6 km/h 8 km/h 94% 0 mm 0 W/m2
03:14 13.6 °C 12.7 °C 1031 hPa North 2.9 km/h 9.7 km/h 94% 0 mm 0 W/m2
03:19 13.7 °C 12.7 °C 1031 hPa WNW 4.5 km/h 8 km/h 93.9% 0 mm 0 W/m2
03:24 13.7 °C 12.6 °C 1031.4 hPa West 0.2 km/h 8 km/h 93% 0 mm 0 W/m2
03:29 13.7 °C 12.6 °C 1031.4 hPa West 0.3 km/h 4.8 km/h 93% 0 mm 0 W/m2
03:34 13.7 °C 12.6 °C 1031.4 hPa SW 1.9 km/h 9.7 km/h 93% 0 mm 0 W/m2
03:39 13.7 °C 12.6 °C 1031.4 hPa SSW 2.7 km/h 9.7 km/h 92.8% 0 mm 0 W/m2
03:44 13.6 °C 12.3 °C 1031.7 hPa East 3.4 km/h 11.3 km/h 92% 0 mm 0 W/m2
03:49 13.3 °C 11.9 °C 1031.7 hPa NNW 6.9 km/h 16.1 km/h 91.2% 0 mm 0 W/m2
03:54 13.3 °C 11.7 °C 1031.7 hPa NNW 4.7 km/h 16.1 km/h 89.9% 0 mm 0 W/m2
03:59 13.3 °C 11.4 °C 1031.7 hPa NNW 4.3 km/h 12.9 km/h 88.4% 0 mm 0 W/m2
04:04 13.4 °C 11.3 °C 1031.7 hPa North 0.6 km/h 6.4 km/h 87% 0 mm 0 W/m2
04:09 13.4 °C 11 °C 1031.7 hPa North 1 km/h 6.4 km/h 85.4% 0 mm 0 W/m2
04:14 13.4 °C 10.8 °C 1031.7 hPa NW 1 km/h 6.4 km/h 84.5% 0 mm 0 W/m2
04:19 13.4 °C 10.7 °C 1031.7 hPa WNW 0.3 km/h 4.8 km/h 83.7% 0 mm 0 W/m2
04:24 13.4 °C 10.6 °C 1032.1 hPa WNW 1.1 km/h 6.4 km/h 83% 0 mm 0 W/m2
04:29 13.3 °C 10.4 °C 1032.1 hPa NNW 1.9 km/h 6.4 km/h 82.4% 0 mm 0 W/m2
04:34 13.3 °C 10.3 °C 1032.1 hPa Calm   3.2 km/h 82% 0 mm 0 W/m2
04:39 13.3 °C 10.2 °C 1032.1 hPa Calm   1.6 km/h 81.6% 0 mm 0 W/m2
04:44 13.3 °C 10.1 °C 1032.1 hPa NNW 1.4 km/h 4.8 km/h 81% 0 mm 0 W/m2
04:49 13.3 °C 10.1 °C 1032.1 hPa Calm   3.2 km/h 81% 0 mm 0 W/m2
04:54 13.2 °C 10.1 °C 1032.1 hPa NNE 4.2 km/h 12.9 km/h 81.4% 0 mm 0 W/m2
04:59 13.2 °C 10 °C 1032.1 hPa NE 0.2 km/h 12.9 km/h 81% 0 mm 0 W/m2
05:04 13.2 °C 10 °C 1032.4 hPa NE 0.3 km/h 4.8 km/h 81% 0 mm 0 W/m2
05:09 13.2 °C 9.9 °C 1032.4 hPa Calm     81% 0 mm 0 W/m2
05:14 13.1 °C 9.8 °C 1032.7 hPa NE 0.2 km/h 1.6 km/h 81% 0 mm 0 W/m2
05:19 13.1 °C 9.9 °C 1032.7 hPa NE 0.2 km/h 1.6 km/h 81% 0 mm 0 W/m2
05:24 13.1 °C 9.8 °C 1032.7 hPa Calm   1.6 km/h 81% 0 mm 0 W/m2
05:29 13 °C 9.8 °C 1032.7 hPa Calm   1.6 km/h 81% 0 mm 0 W/m2
05:34 12.9 °C 9.7 °C 1032.7 hPa NE 3.2 km/h 11.3 km/h 81% 0 mm 0 W/m2
05:39 12.8 °C 9.6 °C 1032.7 hPa NE 2.1 km/h 11.3 km/h 81% 0 mm 0 W/m2
05:44 12.8 °C 9.4 °C 1032.7 hPa NNE 0.3 km/h 6.4 km/h 80.6% 0 mm 0 W/m2
05:49 12.7 °C 9.3 °C 1032.7 hPa NNE 0.5 km/h 3.2 km/h 80% 0 mm 0 W/m2
05:54 12.6 °C 9.2 °C 1033.1 hPa NNE 1.9 km/h 6.4 km/h 80% 0 mm 0 W/m2
05:59 12.4 °C 9.2 °C 1033.1 hPa Calm   4.8 km/h 80.9% 0 mm 0 W/m2
06:04 12.4 °C 9.2 °C 1033.1 hPa NNE 0.6 km/h 3.2 km/h 81% 0 mm 0 W/m2
06:09 12.4 °C 9.2 °C 1033.1 hPa Calm   3.2 km/h 81% 0 mm 0 W/m2
06:14 12.4 °C 9.2 °C 1033.1 hPa Calm     81% 0 mm 0 W/m2
06:19 12.3 °C 9.2 °C 1033.1 hPa Calm     81.1% 0 mm 0 W/m2
06:24 12.3 °C 9.3 °C 1033.1 hPa NNE 0.3 km/h 1.6 km/h 82% 0 mm 0 W/m2
06:29 12.2 °C 9.2 °C 1033.1 hPa Calm   1.6 km/h 82% 0 mm 0 W/m2
06:34 12.1 °C 9.1 °C 1033.4 hPa Calm   1.6 km/h 82% 0 mm 0 W/m2
06:39 12 °C 9 °C 1033.4 hPa Calm   1.6 km/h 82% 0 mm 0 W/m2
06:44 11.9 °C 8.9 °C 1033.4 hPa NW 0.2 km/h 3.2 km/h 82% 0 mm 5 W/m2
06:49 11.8 °C 9 °C 1033.4 hPa NW 1 km/h 4.8 km/h 82.6% 0 mm 7 W/m2
06:54 11.8 °C 8.9 °C 1033.4 hPa Calm     83% 0 mm 11 W/m2
06:59 11.7 °C 8.9 °C 1033.4 hPa NW 0.2 km/h 3.2 km/h 83% 0 mm 12 W/m2
07:04 11.7 °C 8.9 °C 1033.7 hPa NW 0.6 km/h 3.2 km/h 83% 0 mm 18 W/m2
07:09 11.6 °C 8.8 °C 1033.7 hPa NW 0.3 km/h 3.2 km/h 83% 0 mm 19 W/m2
07:14 11.7 °C 8.9 °C 1033.7 hPa Calm     83.7% 0 mm 23 W/m2
07:19 11.6 °C 9 °C 1033.7 hPa Calm     84% 0 mm 23 W/m2
07:24 11.6 °C 9 °C 1033.7 hPa NW 0.2 km/h 1.6 km/h 84% 0 mm 26 W/m2
07:29 11.6 °C 9 °C 1034.1 hPa Calm     84% 0 mm 26 W/m2
07:34 11.6 °C 9 °C 1034.1 hPa NW 0.2 km/h 1.6 km/h 84% 0 mm 25 W/m2
07:39 11.7 °C 9.1 °C 1034.1 hPa Calm     84% 0 mm 26 W/m2
07:44 11.7 °C 9.2 °C 1034.1 hPa Calm     84.5% 0 mm 30 W/m2
07:49 11.8 °C 9.4 °C 1034.1 hPa Calm     85.6% 0 mm 30 W/m2
07:54 11.7 °C 9.3 °C 1034.4 hPa Calm     86% 0 mm 33 W/m2
07:59 11.8 °C 9.6 °C 1034.4 hPa Calm   1.6 km/h 85.9% 0 mm 37 W/m2
08:04 12.1 °C 9.6 °C 1034.4 hPa NW 0.5 km/h 3.2 km/h 84.6% 0 mm 46 W/m2
08:09 12.2 °C 9.5 °C 1034.4 hPa Calm     83.5% 0 mm 60 W/m2
08:14 12.3 °C 9.5 °C 1034.4 hPa NW 0.8 km/h 4.8 km/h 82.7% 0 mm 79 W/m2
08:19 12.4 °C 9.4 °C 1034.4 hPa NW 0.2 km/h 1.6 km/h 82% 0 mm 104 W/m2
08:24 12.6 °C 9.4 °C 1034.4 hPa NW 0.3 km/h 3.2 km/h 81.7% 0 mm 148 W/m2
08:29 12.9 °C 9.8 °C 1034.8 hPa NW 1.1 km/h 6.4 km/h 81.6% 0 mm 174 W/m2
08:34 13.1 °C 9.8 °C 1034.8 hPa NNE 2.3 km/h 8 km/h 80.2% 0 mm 171 W/m2
08:39 13.2 °C 9.6 °C 1034.8 hPa NE 0.8 km/h 6.4 km/h 78.7% 0 mm 230 W/m2
08:44 13.6 °C 10 °C 1034.8 hPa NE 2.4 km/h 8 km/h 78.9% 0 mm 243 W/m2
08:49 13.4 °C 9.5 °C 1035.1 hPa North 2.7 km/h 11.3 km/h 77.3% 0 mm 174 W/m2
08:54 13.3 °C 9.7 °C 1035.1 hPa North 0.5 km/h 8 km/h 78.7% 0 mm 255 W/m2
08:59 13.4 °C 9.7 °C 1035.1 hPa North 2.3 km/h 8 km/h 78.4% 0 mm 267 W/m2
09:04 13.4 °C 9.5 °C 1035.1 hPa NNW 1.6 km/h 6.4 km/h 77.5% 0 mm 281 W/m2
09:09 13.7 °C 9.8 °C 1035.4 hPa NNE 5.1 km/h 14.5 km/h 77.9% 0 mm 292 W/m2
09:14 13.9 °C 9.9 °C 1035.4 hPa NE 6.1 km/h 14.5 km/h 76.8% 0 mm 297 W/m2
09:19 13.9 °C 9.8 °C 1035.4 hPa NNE 3.4 km/h 14.5 km/h 76% 0 mm 311 W/m2
09:24 14.3 °C 10.2 °C 1035.4 hPa ENE 3.2 km/h 11.3 km/h 76.7% 0 mm 316 W/m2
09:29 14.5 °C 10 °C 1035.4 hPa NNE 9 km/h 16.1 km/h 74.5% 0 mm 336 W/m2
09:34 14.3 °C 9.9 °C 1035.4 hPa NE 10.3 km/h 16.1 km/h 75% 0 mm 352 W/m2
09:39 14.3 °C 9.8 °C 1035.4 hPa NNE 6.8 km/h 17.7 km/h 74.7% 0 mm 366 W/m2
09:44 14.4 °C 9.9 °C 1035.4 hPa NNE 6.1 km/h 16.1 km/h 74.5% 0 mm 376 W/m2
09:49 14.6 °C 10 °C 1035.4 hPa ENE 6.8 km/h 22.5 km/h 74% 0 mm 378 W/m2
09:54 14.7 °C 9.8 °C 1035.4 hPa ENE 10.3 km/h 22.5 km/h 72.6% 0 mm 410 W/m2
09:59 14.6 °C 9.7 °C 1035.4 hPa NNE 5.1 km/h 22.5 km/h 72.6% 0 mm 417 W/m2
10:04 14.4 °C 9.5 °C 1035.4 hPa North 8.9 km/h 19.3 km/h 72.6% 0 mm 418 W/m2
10:09 14.7 °C 9.9 °C 1035.4 hPa NE 6.8 km/h 17.7 km/h 73.6% 0 mm 415 W/m2
10:14 14.7 °C 9.7 °C 1035.4 hPa NE 7.9 km/h 17.7 km/h 72.1% 0 mm 438 W/m2
10:19 14.8 °C 9.9 °C 1035.4 hPa NNE 6.6 km/h 12.9 km/h 72.2% 0 mm 464 W/m2
10:24 14.9 °C 9.9 °C 1035.4 hPa NNE 4.7 km/h 16.1 km/h 71.6% 0 mm 508 W/m2
10:29 15.2 °C 9.9 °C 1035.4 hPa NE 9.7 km/h 27.4 km/h 70.9% 0 mm 529 W/m2
10:34 15.4 °C 10.2 °C 1035.4 hPa ENE 5.6 km/h 16.1 km/h 70.7% 0 mm 541 W/m2
10:39 16.2 °C 10.5 °C 1035.4 hPa East 5.5 km/h 14.5 km/h 69.2% 0 mm 534 W/m2
10:44 16.4 °C 10.3 °C 1035.4 hPa East 6.3 km/h 14.5 km/h 67.1% 0 mm 543 W/m2
10:49 16.3 °C 10 °C 1035.4 hPa NE 8.7 km/h 20.9 km/h 66.3% 0 mm 596 W/m2
10:54 15.5 °C 9.7 °C 1035.4 hPa NNW 3.5 km/h 14.5 km/h 68.4% 0 mm 603 W/m2
10:59 16.2 °C 10.3 °C 1035.4 hPa ENE 2.4 km/h 8 km/h 68.3% 0 mm 608 W/m2
11:04 15.9 °C 9.8 °C 1035.4 hPa NNE 9.3 km/h 16.1 km/h 67.2% 0 mm 626 W/m2
11:09 15.7 °C 9.8 °C 1035.4 hPa NNE 8.7 km/h 14.5 km/h 67.9% 0 mm 612 W/m2
11:14 15.6 °C 9.7 °C 1035.4 hPa North 5.6 km/h 17.7 km/h 68.4% 0 mm 589 W/m2
11:19 16.7 °C 10.2 °C 1035.4 hPa ENE 2.4 km/h 11.3 km/h 65.6% 0 mm 589 W/m2
11:24 17.2 °C 10.1 °C 1035.4 hPa ESE 5 km/h 11.3 km/h 63.2% 0 mm 589 W/m2
11:29 17.5 °C 11.2 °C 1035.4 hPa East 2.9 km/h 11.3 km/h 66.4% 0 mm 605 W/m2
11:34 18.1 °C 11.6 °C 1035.4 hPa ESE 7.6 km/h 14.5 km/h 66% 0 mm 605 W/m2
11:39 17.6 °C 11.2 °C 1035.4 hPa ENE 6.1 km/h 16.1 km/h 66.2% 0 mm 617 W/m2
11:44 17.6 °C 11.2 °C 1035.4 hPa East 5 km/h 11.3 km/h 66.2% 0 mm 622 W/m2
11:49 17.6 °C 11.2 °C 1035.4 hPa ENE 3.7 km/h 11.3 km/h 66.3% 0 mm 624 W/m2
11:54 17.1 °C 10.9 °C 1035.4 hPa North 5.1 km/h 12.9 km/h 67.3% 0 mm 636 W/m2
11:59 16.7 °C 10.9 °C 1035.1 hPa NNE 6.8 km/h 16.1 km/h 68.1% 0 mm 642 W/m2
12:04 17.5 °C 11.1 °C 1035.4 hPa ENE 7.1 km/h 16.1 km/h 66.3% 0 mm 631 W/m2
12:09 18.2 °C 10.9 °C 1035.4 hPa East 5.1 km/h 16.1 km/h 62.7% 0 mm 635 W/m2
12:14 18.3 °C 10.7 °C 1035.4 hPa East 7.4 km/h 17.7 km/h 61.1% 0 mm 642 W/m2
12:19 18.2 °C 10.8 °C 1035.4 hPa NE 3.5 km/h 11.3 km/h 61.8% 0 mm 649 W/m2
12:24 18.2 °C 11.1 °C 1035.1 hPa NNE 4 km/h 17.7 km/h 62.9% 0 mm 649 W/m2
12:29 18 °C 10.7 °C 1035.1 hPa ENE 6.3 km/h 19.3 km/h 62.2% 0 mm 650 W/m2
12:34 18.7 °C 10.8 °C 1035.1 hPa NE 4.8 km/h 14.5 km/h 60.3% 0 mm 657 W/m2
12:39 18.2 °C 10.6 °C 1035.1 hPa North 6.4 km/h 16.1 km/h 61.3% 0 mm 659 W/m2
12:44 17.7 °C 10.4 °C 1035.1 hPa NNE 6 km/h 16.1 km/h 62.4% 0 mm 657 W/m2
12:49 18.4 °C 10.8 °C 1035.1 hPa NE 6.9 km/h 17.7 km/h 61.3% 0 mm 661 W/m2
12:54 17.9 °C 10.1 °C 1035.1 hPa North 7.6 km/h 17.7 km/h 60.1% 0 mm 664 W/m2
12:59 17.9 °C 10.2 °C 1035.1 hPa NE 3.2 km/h 12.9 km/h 60.9% 0 mm 664 W/m2
13:04 19.4 °C 11 °C 1035.1 hPa East 1.9 km/h 6.4 km/h 58.4% 0 mm 677 W/m2
13:09 19.4 °C 10.6 °C 1035.1 hPa NE 6.8 km/h 12.9 km/h 56.9% 0 mm 673 W/m2
13:14 19.4 °C 10.2 °C 1035.1 hPa ESE 3.7 km/h 11.3 km/h 55.2% 0 mm 670 W/m2
13:19 19.7 °C 10.2 °C 1035.1 hPa ENE 6.3 km/h 16.1 km/h 54% 0 mm 668 W/m2
13:24 20.2 °C 10 °C 1034.8 hPa ENE 9.3 km/h 16.1 km/h 52% 0 mm 668 W/m2
13:29 20.3 °C 10.2 °C 1034.8 hPa ENE 5.5 km/h 14.5 km/h 52% 0 mm 668 W/m2
13:34 20.8 °C 10.2 °C 1034.8 hPa East 5.1 km/h 14.5 km/h 50.7% 0 mm 666 W/m2
13:39 20.7 °C 10.1 °C 1034.8 hPa ENE 5.8 km/h 12.9 km/h 50.6% 0 mm 666 W/m2
13:44 20.1 °C 9.8 °C 1034.8 hPa NE 5.8 km/h 14.5 km/h 51.6% 0 mm 663 W/m2
13:49 19.9 °C 9.9 °C 1034.8 hPa NE 6.4 km/h 17.7 km/h 52.6% 0 mm 663 W/m2
13:54 19.8 °C 9.9 °C 1034.8 hPa NE 6.6 km/h 17.7 km/h 52.7% 0 mm 659 W/m2
13:59 19.7 °C 9.9 °C 1035.1 hPa NNE 4.8 km/h 14.5 km/h 53% 0 mm 657 W/m2
14:04 20.1 °C 10.1 °C 1034.8 hPa East 3.5 km/h 12.9 km/h 52.9% 0 mm 654 W/m2
14:09 20.4 °C 10.1 °C 1034.8 hPa East 5.3 km/h 14.5 km/h 51.7% 0 mm 652 W/m2
14:14 20.7 °C 10.4 °C 1034.4 hPa ESE 5.5 km/h 12.9 km/h 51.5% 0 mm 649 W/m2
14:19 20.8 °C 10.4 °C 1034.4 hPa NE 3.9 km/h 12.9 km/h 51.2% 0 mm 642 W/m2
14:24 20.6 °C 10.2 °C 1034.4 hPa NNE 6 km/h 19.3 km/h 51.5% 0 mm 638 W/m2
14:29 20.7 °C 9.9 °C 1034.8 hPa ENE 6.8 km/h 14.5 km/h 50.3% 0 mm 633 W/m2
14:34 20.9 °C 10.2 °C 1034.8 hPa ENE 3.4 km/h 14.5 km/h 50.5% 0 mm 629 W/m2
14:39 21.3 °C 10.4 °C 1034.4 hPa ESE 4 km/h 8 km/h 50% 0 mm 622 W/m2
14:44 21.6 °C 10.5 °C 1034.4 hPa North 7.6 km/h 19.3 km/h 49.5% 0 mm 619 W/m2
14:49 20.1 °C 9.8 °C 1034.4 hPa NNE 4.8 km/h 19.3 km/h 51.4% 0 mm 610 W/m2
14:54 21.2 °C 10.1 °C 1034.8 hPa East 2.7 km/h 11.3 km/h 49.1% 0 mm 605 W/m2
14:59 21.9 °C 10.2 °C 1034.8 hPa East 3.4 km/h 11.3 km/h 47.2% 0 mm 601 W/m2
15:04 21.6 °C 10.1 °C 1034.8 hPa NNE 8.5 km/h 14.5 km/h 48% 0 mm 592 W/m2
15:09 20.1 °C 9.7 °C 1034.8 hPa North 3.4 km/h 14.5 km/h 51.3% 0 mm 585 W/m2
15:14 20.7 °C 10.1 °C 1034.8 hPa NE 4.5 km/h 14.5 km/h 50.9% 0 mm 578 W/m2
15:19 20.9 °C 9.9 °C 1034.8 hPa NE 3.5 km/h 14.5 km/h 49.3% 0 mm 571 W/m2
15:24 21.3 °C 10.4 °C 1034.8 hPa ENE 6.6 km/h 12.9 km/h 49.7% 0 mm 559 W/m2
15:29 21.1 °C 10.2 °C 1034.8 hPa NNE 5.1 km/h 11.3 km/h 49.7% 0 mm 552 W/m2
15:34 20.4 °C 10 °C 1034.8 hPa North 2.6 km/h 11.3 km/h 51% 0 mm 543 W/m2
15:39 20.1 °C 10 °C 1034.8 hPa NNE 7.4 km/h 16.1 km/h 52.5% 0 mm 534 W/m2
15:44 20.3 °C 10 °C 1034.8 hPa NE 5 km/h 16.1 km/h 51.5% 0 mm 527 W/m2
15:49 20.3 °C 9.8 °C 1034.8 hPa NNE 7.2 km/h 12.9 km/h 51.2% 0 mm 513 W/m2
15:54 20.2 °C 9.7 °C 1034.8 hPa NE 5.1 km/h 12.9 km/h 51.2% 0 mm 510 W/m2
15:59 20.5 °C 9.8 °C 1034.4 hPa ENE 8.9 km/h 16.1 km/h 50.3% 0 mm 497 W/m2
16:04 20.6 °C 9.6 °C 1034.4 hPa NE 3.7 km/h 12.9 km/h 49.5% 0 mm 485 W/m2
16:09 20.7 °C 9.6 °C 1034.4 hPa North 4.8 km/h 11.3 km/h 49% 0 mm 476 W/m2
16:14 20.9 °C 9.8 °C 1034.4 hPa East 2.3 km/h 11.3 km/h 49.1% 0 mm 468 W/m2
16:19 21.2 °C 9.9 °C 1034.4 hPa NNW 1.3 km/h 8 km/h 48.5% 0 mm 454 W/m2
16:24 21.3 °C 9.5 °C 1034.4 hPa East 5.1 km/h 14.5 km/h 46.8% 0 mm 446 W/m2
16:29 21.3 °C 9.2 °C 1034.4 hPa ESE 6 km/h 12.9 km/h 45.9% 0 mm 436 W/m2
16:34 21.1 °C 9.3 °C 1034.4 hPa NE 1.4 km/h 11.3 km/h 47.1% 0 mm 429 W/m2
16:39 21.3 °C 9.3 °C 1034.4 hPa East 4.3 km/h 11.3 km/h 46.3% 0 mm 410 W/m2
16:44 21.6 °C 9.3 °C 1034.4 hPa East 2.9 km/h 12.9 km/h 45.6% 0 mm 397 W/m2
16:49 21.6 °C 8.9 °C 1034.4 hPa SE 3.2 km/h 12.9 km/h 44.3% 0 mm 388 W/m2
16:54 21.3 °C 9.1 °C 1034.4 hPa East 3.5 km/h 9.7 km/h 45.7% 0 mm 378 W/m2
16:59 21.5 °C 9.2 °C 1034.4 hPa ESE 2.6 km/h 8 km/h 45.3% 0 mm 364 W/m2
17:04 21.8 °C 9.3 °C 1034.4 hPa NE 4.7 km/h 16.1 km/h 45% 0 mm 350 W/m2
17:09 21.6 °C 9.2 °C 1034.4 hPa NE 2.1 km/h 16.1 km/h 44.9% 0 mm 336 W/m2
17:14 21.6 °C 8.8 °C 1034.4 hPa East 5.8 km/h 12.9 km/h 44.2% 0 mm 322 W/m2
17:19 21.6 °C 8.9 °C 1034.4 hPa ENE 2.7 km/h 11.3 km/h 44.3% 0 mm 313 W/m2
17:24 21.5 °C 8.7 °C 1034.4 hPa ENE 4.5 km/h 12.9 km/h 43.8% 0 mm 299 W/m2
17:29 21.3 °C 8.4 °C 1034.4 hPa ENE 5.6 km/h 14.5 km/h 43.5% 0 mm 287 W/m2
17:34 21.1 °C 8.1 °C 1034.4 hPa ESE 5.6 km/h 14.5 km/h 43.4% 0 mm 274 W/m2
17:39 20.9 °C 8.3 °C 1034.4 hPa ENE 5.5 km/h 9.7 km/h 44.2% 0 mm 258 W/m2
17:44 20.9 °C 8.4 °C 1034.4 hPa NE 3.9 km/h 11.3 km/h 44.8% 0 mm 243 W/m2
17:49 20.6 °C 8.2 °C 1034.4 hPa NE 6 km/h 16.1 km/h 44.8% 0 mm 225 W/m2
17:54 20.6 °C 8.1 °C 1034.4 hPa ENE 3.7 km/h 12.9 km/h 44.7% 0 mm 214 W/m2
17:59 20.7 °C 8 °C 1034.4 hPa East 3.2 km/h 11.3 km/h 44% 0 mm 197 W/m2
18:04 20.8 °C 8.4 °C 1034.4 hPa ENE 2.6 km/h 9.7 km/h 44.9% 0 mm 179 W/m2
18:09 21 °C 8.3 °C 1034.4 hPa ENE 1.6 km/h 9.7 km/h 44.2% 0 mm 163 W/m2
18:14 21.2 °C 8.4 °C 1034.4 hPa NE 2.6 km/h 11.3 km/h 43.9% 0 mm 146 W/m2
18:19 21.1 °C 8.3 °C 1034.4 hPa NE 1.3 km/h 11.3 km/h 43.6% 0 mm 130 W/m2
18:24 20.9 °C 8.3 °C 1034.4 hPa NE 3.2 km/h 9.7 km/h 44.2% 0 mm 114 W/m2
18:29 20.4 °C 8.1 °C 1034.4 hPa NNE 2.7 km/h 11.3 km/h 44.8% 0 mm 100 W/m2
18:34 19.9 °C 7.8 °C 1034.4 hPa NNE 1.9 km/h 11.3 km/h 45.8% 0 mm 91 W/m2
18:39 19.9 °C 8 °C 1034.1 hPa NNE 1.3 km/h 6.4 km/h 46.3% 0 mm 77 W/m2
18:44 19.7 °C 8.1 °C 1034.4 hPa NNE 2.1 km/h 6.4 km/h 46.8% 0 mm 65 W/m2
18:49 19.5 °C 7.8 °C 1034.4 hPa NNE 3.9 km/h 9.7 km/h 46.7% 0 mm 53 W/m2
18:54 19.3 °C 7.7 °C 1034.4 hPa NE 2.4 km/h 9.7 km/h 47.3% 0 mm 40 W/m2
18:59 18.9 °C 7.7 °C 1034.4 hPa NE 1.6 km/h 6.4 km/h 48% 0 mm 33 W/m2
19:04 18.8 °C 7.9 °C 1034.4 hPa NE 2.9 km/h 8 km/h 48.7% 0 mm 25 W/m2
19:09 18.7 °C 7.7 °C 1034.4 hPa NNE 1.6 km/h 8 km/h 48.8% 0 mm 19 W/m2
19:14 18.5 °C 7.8 °C 1034.4 hPa NNE 1.6 km/h 6.4 km/h 49.8% 0 mm 16 W/m2
19:19 18.3 °C 7.7 °C 1034.4 hPa NNE 1.3 km/h 6.4 km/h 50.1% 0 mm 12 W/m2
19:24 17.8 °C 7.8 °C 1034.4 hPa NNE 0.3 km/h 3.2 km/h 52% 0 mm 11 W/m2
19:29 17.5 °C 8 °C 1034.4 hPa NNE 0.5 km/h 4.8 km/h 53.8% 0 mm 7 W/m2
19:34 17.2 °C 7.8 °C 1034.8 hPa NNE 0.3 km/h 4.8 km/h 54.2% 0 mm 5 W/m2
19:39 16.9 °C 7.8 °C 1034.8 hPa NNE 0.2 km/h 1.6 km/h 55% 0 mm 0 W/m2
19:44 16.7 °C 8 °C 1034.8 hPa Calm     56.5% 0 mm 0 W/m2
19:49 16.4 °C 8.1 °C 1034.8 hPa Calm     57.4% 0 mm 0 W/m2
19:54 16.3 °C 8.1 °C 1034.8 hPa Calm     57.8% 0 mm 0 W/m2
19:59 16.3 °C 8 °C 1034.8 hPa Calm     58% 0 mm 0 W/m2
20:04 16.3 °C 8.1 °C 1035.1 hPa Calm     58.4% 0 mm 0 W/m2
20:09 16.2 °C 8.2 °C 1035.1 hPa Calm     59.1% 0 mm 0 W/m2
20:14 15.9 °C 8.2 °C 1035.1 hPa Calm     60.2% 0 mm 0 W/m2
20:19 15.8 °C 8.3 °C 1035.1 hPa Calm     61.3% 0 mm 0 W/m2
20:24 15.7 °C 8.4 °C 1035.1 hPa Calm     62% 0 mm 0 W/m2
20:29 15.5 °C 8.3 °C 1035.1 hPa Calm     62.1% 0 mm 0 W/m2
20:34 15.4 °C 8.4 °C 1035.1 hPa Calm     63% 0 mm 0 W/m2
20:39 15.3 °C 8.5 °C 1035.1 hPa Calm     63.9% 0 mm 0 W/m2
20:44 15.1 °C 8.4 °C 1035.1 hPa Calm     64.6% 0 mm 0 W/m2
20:49 14.8 °C 8.4 °C 1035.4 hPa Calm     65.9% 0 mm 0 W/m2
20:54 14.5 °C 8.3 °C 1035.4 hPa Calm     66.8% 0 mm 0 W/m2
20:59 14.3 °C 8.3 °C 1035.4 hPa Calm     67.3% 0 mm 0 W/m2
21:04 14.3 °C 8.5 °C 1035.4 hPa Calm     68% 0 mm 0 W/m2
21:09 14.2 °C 8.5 °C 1035.4 hPa Calm     68.6% 0 mm 0 W/m2
21:14 14.1 °C 8.4 °C 1035.4 hPa Calm     69% 0 mm 0 W/m2
21:19 13.9 °C 8.4 °C 1035.4 hPa Calm     69.5% 0 mm 0 W/m2
21:24 13.8 °C 8.4 °C 1035.4 hPa Calm     70% 0 mm 0 W/m2
21:29 13.6 °C 8.3 °C 1035.4 hPa Calm     70.8% 0 mm 0 W/m2
21:34 13.4 °C 8.2 °C 1035.4 hPa Calm     71% 0 mm 0 W/m2
21:39 13.3 °C 8.3 °C 1035.4 hPa Calm     71.7% 0 mm 0 W/m2
21:44 13.2 °C 8.3 °C 1035.4 hPa Calm     72% 0 mm 0 W/m2
21:49 13.1 °C 8.2 °C 1035.4 hPa Calm     72% 0 mm 0 W/m2
21:54 12.9 °C 8.1 °C 1035.4 hPa Calm     72.2% 0 mm 0 W/m2
21:59 12.8 °C 8.2 °C 1035.4 hPa Calm     73% 0 mm 0 W/m2
22:04 12.8 °C 8.1 °C 1035.4 hPa Calm     73% 0 mm 0 W/m2
22:09 12.7 °C 8 °C 1035.4 hPa Calm     73% 0 mm 0 W/m2
22:14 12.7 °C 8 °C 1035.4 hPa Calm     73% 0 mm 0 W/m2
22:19 12.7 °C 8.2 °C 1035.4 hPa Calm     74% 0 mm 0 W/m2
22:24 12.6 °C 8.1 °C 1035.4 hPa Calm     74% 0 mm 0 W/m2
22:29 12.4 °C 7.9 °C 1035.4 hPa Calm     74% 0 mm 0 W/m2
22:34 12.4 °C 7.9 °C 1035.4 hPa Calm     74% 0 mm 0 W/m2
22:39 12.3 °C 7.8 °C 1035.4 hPa Calm     74% 0 mm 0 W/m2
22:44 12.2 °C 7.7 °C 1035.4 hPa Calm     74% 0 mm 0 W/m2
22:49 12.1 °C 7.6 °C 1035.4 hPa Calm     74% 0 mm 0 W/m2
22:54 11.9 °C 7.4 °C 1035.4 hPa Calm     74% 0 mm 0 W/m2
22:59 11.8 °C 7.5 °C 1035.4 hPa Calm     74.8% 0 mm 0 W/m2
23:04 11.8 °C 7.4 °C 1035.4 hPa Calm     75% 0 mm 0 W/m2
23:09 11.6 °C 7.3 °C 1035.4 hPa Calm     75% 0 mm 0 W/m2
23:14 11.4 °C 7.2 °C 1035.4 hPa Calm     75% 0 mm 0 W/m2
23:19 11.4 °C 7.1 °C 1035.4 hPa Calm     75% 0 mm 0 W/m2
23:24 11.3 °C 7.1 °C 1035.4 hPa Calm     75.2% 0 mm 0 W/m2
23:29 11.3 °C 7.1 °C 1035.4 hPa Calm     75.3% 0 mm 0 W/m2
23:34 11.3 °C 7.2 °C 1035.4 hPa Calm     75.7% 0 mm 0 W/m2
23:39 11.2 °C 7.1 °C 1035.4 hPa Calm     76% 0 mm 0 W/m2
23:44 11.2 °C 7.1 °C 1035.1 hPa Calm     76% 0 mm 0 W/m2
23:49 10.9 °C 6.8 °C 1035.4 hPa Calm     76% 0 mm 0 W/m2
23:54 10.9 °C 7 °C 1035.1 hPa Calm     77% 0 mm 0 W/m2
23:59 10.8 °C 6.9 °C 1035.1 hPa Calm     77% 0 mm 0 W/m2
Bath Spa Weather
Compliments of Weather Underground - 2 mb